createdAt,value
2023-01-29T00:02:12.953Z,101596.66
2023-01-29T00:04:46.241Z,101592.59
2023-01-29T00:07:15.669Z,101598.84
2023-01-29T00:09:47.308Z,101598.79
2023-01-29T00:12:16.848Z,101591.37
2023-01-29T00:14:45.522Z,101585.95
2023-01-29T00:17:14.827Z,101584.86
2023-01-29T00:19:45.445Z,101582.10
2023-01-29T00:22:14.330Z,101575.73
2023-01-29T00:24:44.461Z,101567.43
2023-01-29T00:27:18.857Z,101567.41
2023-01-29T00:30:09.656Z,101563.04
2023-01-29T00:32:44.172Z,101566.29
2023-01-29T00:35:15.612Z,101565.48
2023-01-29T00:37:53.267Z,101567.02
2023-01-29T00:40:24.489Z,101561.98
2023-01-29T00:43:12.367Z,101559.80
2023-01-29T00:45:55.030Z,101556.49
2023-01-29T00:48:25.302Z,101549.45
2023-01-29T00:50:53.836Z,101551.67
2023-01-29T00:53:22.442Z,101550.80
2023-01-29T00:55:51.081Z,101544.78
2023-01-29T00:58:21.965Z,101543.70
2023-01-29T01:00:50.754Z,101543.01
2023-01-29T01:03:19.419Z,101543.20
2023-01-29T01:05:48.566Z,101539.85
2023-01-29T01:08:35.934Z,101531.53
2023-01-29T01:11:06.242Z,101520.09
2023-01-29T01:13:36.008Z,101519.54
2023-01-29T01:16:11.508Z,101507.13
2023-01-29T01:18:43.366Z,101504.35
2023-01-29T01:21:12.293Z,101499.79
2023-01-29T01:23:41.055Z,101502.16
2023-01-29T01:26:12.768Z,101499.35
2023-01-29T01:28:44.309Z,101502.27
2023-01-29T01:31:15.398Z,101501.14
2023-01-29T01:33:44.344Z,101497.20
2023-01-29T01:36:13.506Z,101492.88
2023-01-29T01:38:44.322Z,101496.95
2023-01-29T01:41:13.941Z,101497.95
2023-01-29T01:43:50.652Z,101498.05
2023-01-29T01:46:19.531Z,101495.77
2023-01-29T01:48:50.597Z,101495.87
2023-01-29T01:51:19.379Z,101492.53
2023-01-29T01:53:52.638Z,101499.84
2023-01-29T01:56:24.954Z,101498.32
2023-01-29T01:58:56.129Z,101503.24
2023-01-29T02:01:28.835Z,101498.45
2023-01-29T02:04:19.000Z,101501.19
2023-01-29T02:07:07.024Z,101505.77
2023-01-29T02:09:40.416Z,101506.98
2023-01-29T02:12:11.578Z,101503.42
2023-01-29T02:14:41.727Z,101508.60
2023-01-29T02:17:11.628Z,101513.03
2023-01-29T02:19:49.222Z,101501.29
2023-01-29T02:22:42.039Z,101494.17
2023-01-29T02:25:37.259Z,101494.45
2023-01-29T02:28:28.842Z,101490.29
2023-01-29T02:31:03.512Z,101492.08
2023-01-29T02:33:41.457Z,101490.13
2023-01-29T02:36:16.136Z,101486.92
2023-01-29T02:38:49.325Z,101483.77
2023-01-29T02:41:25.769Z,101482.80
2023-01-29T02:43:57.768Z,101478.44
2023-01-29T02:46:32.465Z,101473.44
2023-01-29T02:49:09.202Z,101471.82
2023-01-29T02:51:42.236Z,101473.59
2023-01-29T02:54:20.675Z,101474.00
2023-01-29T02:56:54.148Z,101472.95
2023-01-29T02:59:24.679Z,101471.20
2023-01-29T03:01:55.515Z,101473.67
2023-01-29T03:04:29.392Z,101469.14
2023-01-29T03:07:00.536Z,101464.64
2023-01-29T03:09:34.366Z,101454.66
2023-01-29T03:12:19.859Z,101456.30
2023-01-29T03:15:09.538Z,101456.07
2023-01-29T03:17:42.061Z,101459.60
2023-01-29T03:20:16.750Z,101458.71
2023-01-29T03:22:50.459Z,101456.99
2023-01-29T03:25:39.799Z,101451.89
2023-01-29T03:28:28.030Z,101448.89
2023-01-29T03:31:17.249Z,101451.52
2023-01-29T03:33:48.951Z,101446.93
2023-01-29T03:36:21.272Z,101450.84
2023-01-29T03:38:49.781Z,101447.66
2023-01-29T03:41:25.336Z,101450.58
2023-01-29T03:44:01.794Z,101449.98
2023-01-29T03:46:36.411Z,101447.51
2023-01-29T03:49:09.512Z,101445.02
2023-01-29T03:51:41.441Z,101446.77
2023-01-29T03:54:20.597Z,101445.17
2023-01-29T03:56:57.519Z,101446.46
2023-01-29T03:59:40.680Z,101449.76
2023-01-29T04:02:13.108Z,101444.01
2023-01-29T04:04:47.355Z,101439.80
2023-01-29T04:07:18.414Z,101436.45
2023-01-29T04:09:49.952Z,101435.20
2023-01-29T04:12:20.548Z,101439.34
2023-01-29T04:14:51.051Z,101440.08
2023-01-29T04:17:21.403Z,101435.25
2023-01-29T04:19:50.176Z,101432.61
2023-01-29T04:22:22.112Z,101428.74
2023-01-29T04:24:51.258Z,101421.86
2023-01-29T04:27:26.381Z,101424.61
2023-01-29T04:30:06.662Z,101417.33
2023-01-29T04:32:47.609Z,101418.23
2023-01-29T04:35:23.773Z,101414.71
2023-01-29T04:37:59.128Z,101416.27
2023-01-29T04:40:32.127Z,101421.23
2023-01-29T04:43:04.999Z,101418.21
2023-01-29T04:45:39.448Z,101408.91
2023-01-29T04:48:13.910Z,101406.83
2023-01-29T04:50:46.540Z,101406.17
2023-01-29T04:53:18.253Z,101399.17
2023-01-29T04:55:51.156Z,101404.80
2023-01-29T04:58:26.569Z,101397.77
2023-01-29T05:00:55.416Z,101394.86
2023-01-29T05:03:26.112Z,101396.63
2023-01-29T05:05:56.020Z,101395.99
2023-01-29T05:08:26.698Z,101398.91
2023-01-29T05:10:57.505Z,101397.95
2023-01-29T05:13:26.773Z,101397.94
2023-01-29T05:16:00.639Z,101397.40
2023-01-29T05:18:28.843Z,101398.08
2023-01-29T05:21:01.795Z,101394.03
2023-01-29T05:23:30.384Z,101391.70
2023-01-29T05:25:59.269Z,101393.96
2023-01-29T05:28:27.950Z,101397.41
2023-01-29T05:30:57.313Z,101397.02
2023-01-29T05:33:27.808Z,101389.36
2023-01-29T05:35:56.871Z,101385.08
2023-01-29T05:38:25.529Z,101378.33
2023-01-29T05:40:54.287Z,101378.64
2023-01-29T05:43:24.743Z,101376.78
2023-01-29T05:45:54.373Z,101370.48
2023-01-29T05:48:24.828Z,101370.08
2023-01-29T05:50:53.225Z,101372.44
2023-01-29T05:53:21.709Z,101375.06
2023-01-29T05:55:50.077Z,101369.58
2023-01-29T05:58:19.124Z,101373.46
2023-01-29T06:00:47.584Z,101368.73
2023-01-29T06:03:16.337Z,101367.66
2023-01-29T06:05:47.177Z,101369.57
2023-01-29T06:08:16.333Z,101374.42
2023-01-29T06:10:46.636Z,101380.56
2023-01-29T06:13:15.154Z,101379.70
2023-01-29T06:15:45.047Z,101380.65
2023-01-29T06:18:13.751Z,101381.14
2023-01-29T06:20:42.240Z,101378.42
2023-01-29T06:23:11.235Z,101377.39
2023-01-29T06:25:39.741Z,101374.64
2023-01-29T06:28:08.362Z,101372.87
2023-01-29T06:30:37.030Z,101378.72
2023-01-29T06:33:05.607Z,101378.02
2023-01-29T06:35:34.425Z,101374.21
2023-01-29T06:38:02.879Z,101372.10
2023-01-29T06:40:32.970Z,101373.45
2023-01-29T06:43:01.741Z,101376.30
2023-01-29T06:45:30.171Z,101378.55
2023-01-29T06:48:01.310Z,101374.17
2023-01-29T06:50:30.080Z,101376.98
2023-01-29T06:53:00.148Z,101374.31
2023-01-29T06:55:28.738Z,101371.29
2023-01-29T06:57:57.306Z,101376.65
2023-01-29T07:00:25.951Z,101376.44
2023-01-29T07:02:54.591Z,101379.98
2023-01-29T07:05:23.230Z,101379.50
2023-01-29T07:07:51.791Z,101378.34
2023-01-29T07:10:20.495Z,101369.12
2023-01-29T07:12:48.930Z,101362.54
2023-01-29T07:15:19.800Z,101355.42
2023-01-29T07:17:58.042Z,101346.05
2023-01-29T07:20:27.310Z,101346.91
2023-01-29T07:22:58.432Z,101347.77
2023-01-29T07:25:27.216Z,101351.82
2023-01-29T07:27:55.902Z,101359.56
2023-01-29T07:30:25.752Z,101359.48
2023-01-29T07:32:55.015Z,101363.27
2023-01-29T07:35:24.874Z,101369.08
2023-01-29T07:37:56.208Z,101370.41
2023-01-29T07:40:25.438Z,101369.95
2023-01-29T07:43:00.236Z,101372.98
2023-01-29T07:45:36.468Z,101379.94
2023-01-29T07:48:05.717Z,101384.93
2023-01-29T07:50:35.897Z,101383.67
2023-01-29T07:53:05.147Z,101377.73
2023-01-29T07:55:34.274Z,101374.45
2023-01-29T07:58:03.908Z,101365.31
2023-01-29T08:00:33.476Z,101355.92
2023-01-29T08:03:06.776Z,101354.48
2023-01-29T08:05:35.252Z,101349.81
2023-01-29T08:08:07.438Z,101353.61
2023-01-29T08:10:36.649Z,101353.24
2023-01-29T08:13:05.519Z,101353.72
2023-01-29T08:15:35.996Z,101352.94
2023-01-29T08:18:06.120Z,101351.02
2023-01-29T08:20:48.550Z,101348.41
2023-01-29T08:23:30.954Z,101338.00
2023-01-29T08:26:10.170Z,101340.49
2023-01-29T08:28:47.720Z,101338.79
2023-01-29T08:31:25.782Z,101338.47
2023-01-29T08:33:56.444Z,101339.39
2023-01-29T08:36:45.418Z,101340.20
2023-01-29T08:39:50.103Z,101347.21
2023-01-29T08:42:32.342Z,101347.64
2023-01-29T08:45:11.828Z,101348.10
2023-01-29T08:47:47.516Z,101351.45
2023-01-29T08:50:20.500Z,101347.68
2023-01-29T08:52:52.061Z,101342.04
2023-01-29T08:55:22.064Z,101337.88
2023-01-29T08:57:51.964Z,101336.20
2023-01-29T09:00:22.363Z,101329.16
2023-01-29T09:02:55.406Z,101326.16
2023-01-29T09:05:26.533Z,101323.05
2023-01-29T09:08:15.960Z,101319.46
2023-01-29T09:10:51.448Z,101309.36
2023-01-29T09:13:36.585Z,101303.98
2023-01-29T09:16:18.984Z,101303.21
2023-01-29T09:18:51.743Z,101299.27
2023-01-29T09:21:23.081Z,101296.75
2023-01-29T09:24:03.139Z,101290.48
2023-01-29T09:26:36.143Z,101288.02
2023-01-29T09:29:09.511Z,101289.08
2023-01-29T09:31:40.046Z,101293.60
2023-01-29T09:34:09.961Z,101291.02
2023-01-29T09:36:39.396Z,101296.11
2023-01-29T09:39:09.494Z,101292.20
2023-01-29T09:41:48.795Z,101290.81
2023-01-29T09:44:22.746Z,101290.45
2023-01-29T09:46:51.434Z,101290.95
2023-01-29T09:49:24.679Z,101282.35
2023-01-29T09:51:58.021Z,101279.92
2023-01-29T09:54:30.062Z,101269.39
2023-01-29T09:57:02.381Z,101262.98
2023-01-29T09:59:32.179Z,101258.99
2023-01-29T10:02:15.807Z,101259.10
2023-01-29T10:04:54.884Z,101257.22
2023-01-29T10:07:36.833Z,101253.06
2023-01-29T10:10:17.495Z,101252.95
2023-01-29T10:12:57.362Z,101246.13
2023-01-29T10:15:41.734Z,101241.02
2023-01-29T10:18:37.549Z,101242.50
2023-01-29T10:21:22.849Z,101241.63
2023-01-29T10:23:53.385Z,101237.48
2023-01-29T10:26:24.733Z,101233.74
2023-01-29T10:29:02.010Z,101237.36
2023-01-29T10:31:32.685Z,101237.65
2023-01-29T10:34:03.615Z,101238.11
2023-01-29T10:36:36.539Z,101236.91
2023-01-29T10:39:05.294Z,101233.11
2023-01-29T10:41:53.982Z,101233.31
2023-01-29T10:44:30.219Z,101229.21
2023-01-29T10:47:10.633Z,101230.03
2023-01-29T10:49:54.658Z,101228.80
2023-01-29T10:52:33.791Z,101232.41
2023-01-29T10:55:09.257Z,101226.21
2023-01-29T10:57:52.659Z,101219.50
2023-01-29T11:00:23.616Z,101216.15
2023-01-29T11:02:52.816Z,101213.45
2023-01-29T11:05:25.384Z,101214.23
2023-01-29T11:08:02.840Z,101210.70
2023-01-29T11:10:35.038Z,101210.34
2023-01-29T11:13:04.149Z,101204.81
2023-01-29T11:15:34.456Z,101202.71
2023-01-29T11:18:10.030Z,101203.91
2023-01-29T11:20:39.029Z,101197.28
2023-01-29T11:23:19.283Z,101189.70
2023-01-29T11:25:52.960Z,101188.59
2023-01-29T11:28:37.138Z,101184.17
2023-01-29T11:31:16.351Z,101174.56
2023-01-29T11:33:45.884Z,101167.50
2023-01-29T11:36:32.654Z,101159.37
2023-01-29T11:39:15.184Z,101153.09
2023-01-29T11:41:44.734Z,101145.84
2023-01-29T11:44:27.983Z,101134.95
2023-01-29T11:46:57.428Z,101129.48
2023-01-29T11:49:33.775Z,101124.45
2023-01-29T11:52:04.616Z,101120.51
2023-01-29T11:54:35.808Z,101117.86
2023-01-29T11:57:05.155Z,101115.20
2023-01-29T11:59:43.696Z,101121.40
2023-01-29T12:02:22.586Z,101121.02
2023-01-29T12:04:51.582Z,101116.89
2023-01-29T12:07:20.685Z,101112.44
2023-01-29T12:09:55.528Z,101110.16
2023-01-29T12:12:40.336Z,101112.10
2023-01-29T12:15:23.967Z,101105.08
2023-01-29T12:17:58.848Z,101090.70
2023-01-29T12:20:33.831Z,101093.32
2023-01-29T12:23:21.415Z,101085.34
2023-01-29T12:25:56.390Z,101079.50
2023-01-29T12:28:34.104Z,101079.02
2023-01-29T12:31:14.734Z,101074.52
2023-01-29T12:33:51.352Z,101076.67
2023-01-29T12:36:26.515Z,101071.30
2023-01-29T12:38:56.148Z,101073.59
2023-01-29T12:41:40.770Z,101071.30
2023-01-29T12:44:14.123Z,101064.27
2023-01-29T12:46:44.348Z,101061.71
2023-01-29T12:49:19.106Z,101057.81
2023-01-29T12:51:55.386Z,101050.48
2023-01-29T12:54:31.237Z,101050.63
2023-01-29T12:57:03.118Z,101040.45
2023-01-29T12:59:35.958Z,101038.89
2023-01-29T13:02:16.476Z,101043.33
2023-01-29T13:04:46.840Z,101041.42
2023-01-29T13:07:18.734Z,101040.83
2023-01-29T13:09:50.823Z,101045.35
2023-01-29T13:12:21.449Z,101047.18
2023-01-29T13:14:54.091Z,101055.16
2023-01-29T13:17:28.049Z,101058.35
2023-01-29T13:19:56.689Z,101055.70
2023-01-29T13:22:26.236Z,101063.27
2023-01-29T13:25:04.211Z,101061.86
2023-01-29T13:27:34.766Z,101056.96
2023-01-29T13:30:05.375Z,101052.03
2023-01-29T13:32:35.799Z,101053.80
2023-01-29T13:35:06.361Z,101050.98
2023-01-29T13:37:36.249Z,101051.43
2023-01-29T13:40:17.976Z,101049.42
2023-01-29T13:42:47.993Z,101048.80
2023-01-29T13:45:24.840Z,101041.89
2023-01-29T13:47:53.628Z,101023.48
2023-01-29T13:50:26.481Z,101016.41
2023-01-29T13:52:56.427Z,101009.56
2023-01-29T13:55:30.835Z,101013.79
2023-01-29T13:58:00.333Z,101018.07
2023-01-29T14:00:58.482Z,101021.07
2023-01-29T14:04:09.373Z,101018.78
2023-01-29T14:06:49.271Z,101021.51
2023-01-29T14:09:50.269Z,101022.45
2023-01-29T14:12:38.147Z,101030.40
2023-01-29T14:15:25.048Z,101040.17
2023-01-29T14:18:18.978Z,101046.55
2023-01-29T14:21:02.005Z,101057.59
2023-01-29T14:23:35.541Z,101061.77
2023-01-29T14:26:06.198Z,101058.81
2023-01-29T14:28:35.592Z,101051.60
2023-01-29T14:31:05.321Z,101052.21
2023-01-29T14:33:37.082Z,101045.64
2023-01-29T14:36:09.747Z,101040.67
2023-01-29T14:38:39.449Z,101045.36
2023-01-29T14:41:17.978Z,101037.95
2023-01-29T14:43:46.441Z,101035.73
2023-01-29T14:46:43.139Z,101027.44
2023-01-29T14:49:11.778Z,101023.60
2023-01-29T14:51:43.186Z,101020.48
2023-01-29T14:54:21.074Z,101002.50
2023-01-29T14:56:56.380Z,101005.83
2023-01-29T14:59:30.333Z,101007.81
2023-01-29T15:01:58.607Z,101018.61
2023-01-29T15:04:28.876Z,101027.34
2023-01-29T15:07:01.229Z,101036.35
2023-01-29T15:09:36.667Z,101034.05
2023-01-29T15:12:18.900Z,101028.65
2023-01-29T15:14:52.312Z,101018.25
2023-01-29T15:17:27.513Z,101012.62
2023-01-29T15:19:57.559Z,101005.30
2023-01-29T15:22:28.442Z,101008.10
2023-01-29T15:25:07.459Z,101005.64
2023-01-29T15:27:36.169Z,100997.02
2023-01-29T15:30:07.940Z,100997.31
2023-01-29T15:32:39.086Z,100995.20
2023-01-29T15:35:10.114Z,100994.49
2023-01-29T15:37:39.812Z,100989.20
2023-01-29T15:40:15.656Z,100984.88
2023-01-29T15:42:47.707Z,100979.36
2023-01-29T15:45:25.278Z,100980.86
2023-01-29T15:47:56.409Z,100977.26
2023-01-29T15:50:25.047Z,100980.71
2023-01-29T15:52:54.624Z,100981.31
2023-01-29T15:55:24.567Z,100977.48
2023-01-29T15:57:53.035Z,100973.54
2023-01-29T16:00:26.870Z,100968.45
2023-01-29T16:02:55.560Z,100968.90
2023-01-29T16:05:28.343Z,100961.82
2023-01-29T16:07:57.595Z,100956.96
2023-01-29T16:10:28.253Z,100963.45
2023-01-29T16:12:56.959Z,100968.44
2023-01-29T16:15:32.116Z,100963.33
2023-01-29T16:18:02.452Z,100968.02
2023-01-29T16:20:41.114Z,100968.92
2023-01-29T16:23:19.361Z,100974.25
2023-01-29T16:25:48.383Z,100973.95
2023-01-29T16:28:17.218Z,100976.50
2023-01-29T16:30:45.839Z,100971.93
2023-01-29T16:33:16.474Z,100974.16
2023-01-29T16:35:51.690Z,100974.35
2023-01-29T16:38:29.510Z,100975.39
2023-01-29T16:41:14.990Z,100977.68
2023-01-29T16:43:52.152Z,100980.61
2023-01-29T16:46:24.728Z,100980.04
2023-01-29T16:48:53.893Z,100980.72
2023-01-29T16:51:26.912Z,100983.96
2023-01-29T16:54:11.269Z,100988.01
2023-01-29T16:56:40.165Z,100985.27
2023-01-29T16:59:18.743Z,100982.73
2023-01-29T17:01:48.824Z,100982.70
2023-01-29T17:04:19.379Z,100978.88
2023-01-29T17:06:49.441Z,100973.76
2023-01-29T17:09:25.884Z,100966.95
2023-01-29T17:11:56.485Z,100962.34
2023-01-29T17:14:26.595Z,100958.70
2023-01-29T17:17:59.683Z,100948.19
2023-01-29T17:20:09.255Z,100949.64
2023-01-29T17:22:39.043Z,100944.98
2023-01-29T17:25:09.346Z,100948.01
2023-01-29T17:27:41.567Z,100943.32
2023-01-29T17:30:15.444Z,100940.38
2023-01-29T17:32:44.949Z,100936.17
2023-01-29T17:35:17.392Z,100927.91
2023-01-29T17:37:47.126Z,100926.54
2023-01-29T17:40:29.157Z,100921.35
2023-01-29T17:42:57.712Z,100916.66
2023-01-29T17:45:26.270Z,100915.34
2023-01-29T17:47:54.686Z,100914.25
2023-01-29T17:50:24.713Z,100902.85
2023-01-29T17:52:53.312Z,100895.81
2023-01-29T17:55:21.798Z,100891.44
2023-01-29T17:57:50.336Z,100883.96
2023-01-29T18:00:22.029Z,100873.90
2023-01-29T18:02:51.169Z,100872.98
2023-01-29T18:05:20.502Z,100870.33
2023-01-29T18:07:51.707Z,100869.27
2023-01-29T18:10:22.396Z,100863.62
2023-01-29T18:12:50.840Z,100857.58
2023-01-29T18:15:20.075Z,100851.67
2023-01-29T18:17:51.613Z,100839.58
2023-01-29T18:20:23.049Z,100835.23
2023-01-29T18:22:52.184Z,100829.19
2023-01-29T18:25:20.965Z,100827.36
2023-01-29T18:27:49.611Z,100830.41
2023-01-29T18:30:18.665Z,100830.33
2023-01-29T18:32:47.834Z,100837.43
2023-01-29T18:35:17.329Z,100837.63
2023-01-29T18:37:46.396Z,100834.50
2023-01-29T18:40:16.759Z,100837.41
2023-01-29T18:42:45.533Z,100836.73
2023-01-29T18:45:16.300Z,100833.30
2023-01-29T18:47:45.441Z,100834.50
2023-01-29T18:50:13.845Z,100832.98
2023-01-29T18:52:44.018Z,100834.60
2023-01-29T18:55:12.387Z,100831.11
2023-01-29T18:58:34.179Z,100824.22
2023-01-29T19:00:29.468Z,100828.18
2023-01-29T19:02:57.905Z,100818.85
2023-01-29T19:05:29.599Z,100820.17
2023-01-29T19:08:01.195Z,100819.35
2023-01-29T19:10:29.690Z,100818.77
2023-01-29T19:12:59.732Z,100819.80
2023-01-29T19:15:28.887Z,100813.94
2023-01-29T19:17:57.897Z,100812.41
2023-01-29T19:20:26.414Z,100814.52
2023-01-29T19:22:59.433Z,100816.60
2023-01-29T19:25:28.101Z,100812.33
2023-01-29T19:27:56.544Z,100811.62
2023-01-29T19:30:26.261Z,100804.18
2023-01-29T19:32:54.820Z,100802.91
2023-01-29T19:35:23.561Z,100793.86
2023-01-29T19:37:52.521Z,100790.66
2023-01-29T19:40:23.680Z,100790.59
2023-01-29T19:42:55.234Z,100784.05
2023-01-29T19:45:37.488Z,100777.17
2023-01-29T19:48:17.051Z,100772.95
2023-01-29T19:50:52.142Z,100771.00
2023-01-29T19:53:20.871Z,100764.48
2023-01-29T19:55:58.253Z,100762.42
2023-01-29T19:58:26.876Z,100763.48
2023-01-29T20:00:56.557Z,100759.88
2023-01-29T20:03:25.710Z,100757.70
2023-01-29T20:05:54.375Z,100753.14
2023-01-29T20:08:23.610Z,100747.80
2023-01-29T20:10:52.013Z,100750.59
2023-01-29T20:13:20.471Z,100746.94
2023-01-29T20:15:51.080Z,100745.98
2023-01-29T20:18:19.799Z,100743.38
2023-01-29T20:20:50.037Z,100731.91
2023-01-29T20:23:35.219Z,100730.71
2023-01-29T20:26:05.649Z,100725.11
2023-01-29T20:28:36.851Z,100726.36
2023-01-29T20:31:07.282Z,100720.45
2023-01-29T20:33:38.801Z,100720.01
2023-01-29T20:36:10.459Z,100712.48
2023-01-29T20:38:39.068Z,100707.45
2023-01-29T20:41:09.283Z,100701.91
2023-01-29T20:43:37.982Z,100688.19
2023-01-29T20:46:07.031Z,100680.39
2023-01-29T20:48:36.154Z,100681.91
2023-01-29T20:51:07.411Z,100674.50
2023-01-29T20:53:36.485Z,100674.45
2023-01-29T20:56:06.630Z,100671.06
2023-01-29T20:58:35.189Z,100671.11
2023-01-29T21:01:08.162Z,100670.19
2023-01-29T21:03:36.725Z,100662.89
2023-01-29T21:06:06.428Z,100663.31
2023-01-29T21:08:35.294Z,100660.55
2023-01-29T21:11:04.311Z,100659.84
2023-01-29T21:13:33.058Z,100657.61
2023-01-29T21:16:01.684Z,100662.59
2023-01-29T21:18:30.281Z,100655.55
2023-01-29T21:20:58.675Z,100654.20
2023-01-29T21:23:27.133Z,100651.55
2023-01-29T21:26:01.834Z,100654.26
2023-01-29T21:28:30.445Z,100654.67
2023-01-29T21:31:06.427Z,100655.36
2023-01-29T21:33:35.160Z,100653.04
2023-01-29T21:36:04.069Z,100649.33
2023-01-29T21:38:32.716Z,100647.63
2023-01-29T21:41:01.865Z,100643.10
2023-01-29T21:43:30.354Z,100638.20
2023-01-29T21:46:01.995Z,100640.55
2023-01-29T21:48:30.455Z,100636.17
2023-01-29T21:50:58.837Z,100637.11
2023-01-29T21:53:27.232Z,100636.18
2023-01-29T21:56:00.464Z,100627.55
2023-01-29T21:58:29.203Z,100623.70
2023-01-29T22:01:35.659Z,100620.53
2023-01-29T22:03:47.503Z,100611.02
2023-01-29T22:06:16.218Z,100607.09
2023-01-29T22:08:44.650Z,100601.65
2023-01-29T22:11:13.369Z,100600.28
2023-01-29T22:13:41.783Z,100598.27
2023-01-29T22:16:10.164Z,100592.55
2023-01-29T22:18:38.972Z,100589.27
2023-01-29T22:21:07.363Z,100584.45
2023-01-29T22:23:35.740Z,100575.77
2023-01-29T22:26:05.475Z,100568.66
2023-01-29T22:28:34.501Z,100563.30
2023-01-29T22:31:02.987Z,100558.63
2023-01-29T22:33:32.610Z,100551.20
2023-01-29T22:36:01.651Z,100547.86
2023-01-29T22:38:30.473Z,100544.44
2023-01-29T22:41:03.049Z,100541.08
2023-01-29T22:43:31.570Z,100533.57
2023-01-29T22:46:00.052Z,100527.33
2023-01-29T22:48:29.910Z,100515.13
2023-01-29T22:51:09.447Z,100511.92
2023-01-29T22:53:38.452Z,100508.13
2023-01-29T22:56:08.609Z,100501.95
2023-01-29T22:58:37.123Z,100496.83
2023-01-29T23:01:05.935Z,100488.73
2023-01-29T23:03:35.035Z,100480.63
2023-01-29T23:06:04.591Z,100477.19
2023-01-29T23:08:33.659Z,100471.95
2023-01-29T23:11:13.623Z,100463.75
2023-01-29T23:13:43.074Z,100457.94
2023-01-29T23:16:11.704Z,100454.72
2023-01-29T23:18:40.326Z,100447.87
2023-01-29T23:21:09.527Z,100443.38
2023-01-29T23:23:38.665Z,100445.60
2023-01-29T23:26:27.738Z,100441.82
2023-01-29T23:28:56.478Z,100437.48
2023-01-29T23:31:25.488Z,100434.23
2023-01-29T23:33:54.042Z,100430.59
2023-01-29T23:36:22.718Z,100427.09
2023-01-29T23:38:51.129Z,100418.55
2023-01-29T23:41:19.527Z,100416.05
2023-01-29T23:43:48.119Z,100418.15
2023-01-29T23:46:16.498Z,100413.48
2023-01-29T23:48:44.974Z,100406.94
2023-01-29T23:51:13.504Z,100403.58
2023-01-29T23:53:42.162Z,100399.11
2023-01-29T23:56:11.530Z,100396.09
2023-01-29T23:58:40.344Z,100395.70
